Share

Ajaccio, France

6:40 PM CEST on April 24, 2014 (GMT +0200)
Campo Dell' Oro (LFKJ) Elev 30 ft | 41.92 °N, 8.80 °E | Change Station

Current weather conditions updated 10 minutes ago

Partly Cloudy
Partly Cloudy
66 °F
Feels Like 66 °F
N
6
Wind Variable Wind from SW
Sunrise 6:31 AM
Sunset 8:15 PM
Moon Waning Crescent

Tomorrow is forecast to be nearly the same temperature as today. Showers tomorrow night.

Pressure 29.98 in
Visibility 6.2 miles
Clouds Few 4600 ft
Dew Point 59 °F
Humidity 78%
Rainfall 0.00 in
Snow Depth Not available.
UV 1 out of 16
Pollen Not available.
Air Quality Not available.
Flu Activity Not available.
METAR LFKJ 241630Z 22005KT 9999 FEW046 19/15 Q1015 NOSIG

More Conditions Fewer Conditions

Pressure 29.98 in
Visibility 6.2 miles
Clouds Few 4600 ft
Dew Point 59 °F
Humidity 78%
Rainfall 0.00 in
Snow Depth Not available.
UV 1 out of 16
Pollen Not available.
Air Quality Not available.
Flu Activity Not available.
METAR LFKJ 241630Z 22005KT 9999 FEW046 19/15 Q1015 NOSIG

More Conditions Fewer Conditions

10-Day Weather Forecast

Almanac

Astronomy

Apr. 24, 2014 Rise Set
Actual Time 6:31 AM CEST 8:15 PM CEST
Civil Twilight 6:01 AM CEST 8:45 PM CEST
Nautical Twilight 5:25 AM CEST 9:21 PM CEST
Astronomical Twilight 4:46 AM CEST 10:00 PM CEST
Moon 3:36 AM CEST 3:07 PM CEST
Length of Visible Light 14h 43m
Length of Day
13h 44m
Tomorrow will be 2m 33s longer.
Waning Crescent, 24% of the Moon is Illuminated
Today
Waning Crescent
Apr 29
New
May 6
First Quarter
May 14
Full
May 21
Last Quarter

Today's Extremes

Country Highs Country Lows

Community

  • Sunset at Apalachicola Bay, Florida
    Sunset at Apalachicola Bay, Florida
  • Clouds mov'n in
    Clouds mov'n in
  • Stacked
    Stacked
  • clouds approaching Red Sox Nation
    clouds approaching Red Sox Nation
  • Balance
    Balance

WunderPhotos

Upload Photos

1,704,665 photos uploaded!

Nearby

Snow Depth

Not available.

Coastal Water Temperatures

Place Temperature
No Stations Reporting

Earthquake Activity

City Distance Mag. Time & Date
No recent earthquake activity has been reported nearby.
Minimum magnitude displayed is 2.5.

Nearby Weather Stations

There are no personal weather stations in this area.

What do you think?

We're not finished. Please let us know what you like, what you don't like, and what you are still missing.